createdAt,value
2019-05-02T00:00:29.598Z,13461
2019-05-02T00:05:51.131Z,13425
2019-05-02T00:11:07.508Z,13530
2019-05-02T00:16:27.711Z,13433
2019-05-02T00:21:44.079Z,13418
2019-05-02T00:27:05.358Z,13432
2019-05-02T00:32:25.157Z,13523
2019-05-02T00:37:45.696Z,13427
2019-05-02T00:43:07.143Z,13391
2019-05-02T00:48:24.397Z,13480
2019-05-02T00:53:39.804Z,13409
2019-05-02T00:59:08.835Z,13399
2019-05-02T01:04:29.257Z,13402
2019-05-02T01:09:48.024Z,13452
2019-05-02T01:15:09.700Z,13394
2019-05-02T01:20:29.329Z,13403
2019-05-02T01:25:52.652Z,13387
2019-05-02T01:31:08.319Z,13405
2019-05-02T01:36:40.998Z,13390
2019-05-02T01:42:04.074Z,13402
2019-05-02T01:47:19.869Z,13398
2019-05-02T01:52:36.984Z,13372
2019-05-02T01:57:59.195Z,13406
2019-05-02T02:03:14.878Z,13386
2019-05-02T02:08:33.956Z,13413
2019-05-02T02:13:57.873Z,13389
2019-05-02T02:19:14.611Z,13412
2019-05-02T02:24:30.737Z,13413
2019-05-02T02:29:46.324Z,13403
2019-05-02T02:35:09.859Z,13393
2019-05-02T02:40:35.831Z,13411
2019-05-02T02:45:57.531Z,13390
2019-05-02T02:51:25.692Z,13382
2019-05-02T02:56:42.664Z,13370
2019-05-02T03:02:11.948Z,13357
2019-05-02T03:07:29.520Z,13361
2019-05-02T03:12:53.269Z,13359
2019-05-02T03:18:10.190Z,13397
2019-05-02T03:23:26.367Z,13345
2019-05-02T03:28:43.192Z,13331
2019-05-02T03:34:03.890Z,13325
2019-05-02T03:39:19.181Z,13316
2019-05-02T03:44:36.464Z,13331
2019-05-02T03:49:54.122Z,13322
2019-05-02T03:55:11.301Z,13359
2019-05-02T04:00:28.795Z,13367
2019-05-02T04:05:45.257Z,13385
2019-05-02T04:11:02.307Z,13409
2019-05-02T04:16:19.350Z,13401
2019-05-02T04:21:38.779Z,13367
2019-05-02T04:26:59.609Z,13388
2019-05-02T04:32:15.039Z,13375
2019-05-02T04:37:43.756Z,13399
2019-05-02T04:43:10.504Z,13362
2019-05-02T04:48:34.520Z,13390
2019-05-02T04:54:09.633Z,13388
2019-05-02T04:59:56.557Z,13394
2019-05-02T05:05:30.682Z,13413
2019-05-02T05:10:45.588Z,14077
2019-05-02T05:16:18.449Z,14201
2019-05-02T05:21:34.303Z,14145
2019-05-02T05:27:00.660Z,13943
2019-05-02T05:32:22.419Z,13712
2019-05-02T05:37:48.309Z,13519
2019-05-02T05:43:16.234Z,13409
2019-05-02T06:14:47.149Z,13147
2019-05-02T06:46:29.699Z,13235
2019-05-02T06:51:43.655Z,13244
2019-05-02T06:56:59.286Z,13233
2019-05-02T07:02:15.529Z,13244
2019-05-02T07:07:37.788Z,13291
2019-05-02T07:13:10.978Z,13269
2019-05-02T07:18:34.147Z,13205
2019-05-02T07:23:56.837Z,13198
2019-05-02T07:29:12.650Z,13319
2019-05-02T07:34:36.552Z,13379
2019-05-02T07:39:52.226Z,13317
2019-05-02T07:45:10.789Z,13329
2019-05-02T07:50:27.351Z,13388
2019-05-02T07:55:43.992Z,13381
2019-05-02T08:01:15.266Z,13373
2019-05-02T08:06:40.024Z,13314
2019-05-02T08:12:03.175Z,13287
2019-05-02T08:17:20.434Z,13317
2019-05-02T08:22:48.867Z,13262
2019-05-02T08:28:17.516Z,13179
2019-05-02T08:33:36.159Z,13247
2019-05-02T08:38:56.760Z,13223
2019-05-02T08:44:18.100Z,13289
2019-05-02T08:49:34.177Z,13148
2019-05-02T08:54:49.546Z,13187
2019-05-02T09:00:05.903Z,13306
2019-05-02T09:05:25.598Z,13229
2019-05-02T09:10:43.801Z,13338
2019-05-02T09:16:06.388Z,13367
2019-05-02T09:21:26.592Z,13306
2019-05-02T09:26:48.541Z,13326
2019-05-02T09:32:06.204Z,13252
2019-05-02T09:37:23.347Z,13340
2019-05-02T09:42:53.109Z,13253
2019-05-02T09:48:26.861Z,13258
2019-05-02T09:53:45.212Z,13179
2019-05-02T09:59:24.157Z,13232
2019-05-02T10:04:47.480Z,13300
2019-05-02T10:15:22.722Z,13260
2019-05-02T10:20:39.129Z,13296
2019-05-02T10:26:03.990Z,13212
2019-05-02T10:47:04.390Z,13195
2019-05-02T11:02:52.954Z,13280
2019-05-02T11:08:12.527Z,13329
2019-05-02T11:13:28.601Z,13297
2019-05-02T11:18:52.258Z,13344
2019-05-02T11:24:07.582Z,13267
2019-05-02T11:29:26.989Z,13296
2019-05-02T11:40:07.029Z,13151
2019-05-02T11:45:27.047Z,13142
2019-05-02T11:56:07.557Z,13243
2019-05-02T12:01:39.626Z,13192
2019-05-02T12:07:08.848Z,13235
2019-05-02T13:10:12.269Z,13324
2019-05-02T13:15:28.654Z,13398
2019-05-02T13:20:44.552Z,13406
2019-05-02T13:26:10.205Z,13658
2019-05-02T13:31:40.214Z,13922
2019-05-02T13:37:03.251Z,13523
2019-05-02T13:42:22.075Z,13368
2019-05-02T13:47:39.265Z,13216
2019-05-02T17:23:07.674Z,13156
2019-05-02T17:44:18.209Z,13171
2019-05-02T17:49:38.460Z,13208
2019-05-02T18:00:16.817Z,13211
2019-05-02T18:05:42.760Z,13213
2019-05-02T18:11:02.751Z,13218
2019-05-02T18:16:24.032Z,13220
2019-05-02T18:21:38.720Z,13244
2019-05-02T18:27:02.616Z,13257
2019-05-02T18:32:25.974Z,13235
2019-05-02T18:37:46.858Z,13264
2019-05-02T18:43:05.723Z,13278
2019-05-02T18:48:22.387Z,13275
2019-05-02T18:53:42.847Z,13259
2019-05-02T18:58:58.189Z,13247
2019-05-02T19:04:13.738Z,13256
2019-05-02T19:09:33.141Z,13224
2019-05-02T19:14:52.659Z,13238
2019-05-02T19:20:22.620Z,13229
2019-05-02T19:25:42.600Z,13225
2019-05-02T19:31:07.547Z,13253
2019-05-02T19:36:28.199Z,13247
2019-05-02T19:41:45.662Z,13250
2019-05-02T19:46:59.867Z,13265
2019-05-02T19:52:17.451Z,13258
2019-05-02T19:57:32.884Z,13251
2019-05-02T20:02:47.766Z,13257
2019-05-02T20:08:04.141Z,13249
2019-05-02T20:13:27.997Z,13255
2019-05-02T20:18:47.740Z,13249
2019-05-02T20:24:14.503Z,13272
2019-05-02T20:29:33.846Z,13285
2019-05-02T20:34:48.329Z,13261
2019-05-02T20:40:03.368Z,13240
2019-05-02T20:45:17.843Z,13235
2019-05-02T20:50:32.378Z,13271
2019-05-02T20:55:48.571Z,13258
2019-05-02T21:01:09.129Z,13225
2019-05-02T21:06:43.387Z,13239
2019-05-02T21:11:58.713Z,13231
2019-05-02T21:17:16.596Z,13292
2019-05-02T21:22:33.266Z,13293
2019-05-02T21:27:48.595Z,13235
2019-05-02T21:33:04.234Z,13244
2019-05-02T21:38:23.052Z,13257
2019-05-02T21:43:37.614Z,13208
2019-05-02T21:48:53.283Z,13225
2019-05-02T21:54:05.610Z,13226
2019-05-02T21:59:23.903Z,13213
2019-05-02T22:04:42.744Z,13180
2019-05-02T22:09:56.850Z,13234
2019-05-02T22:15:15.253Z,13203
2019-05-02T22:20:35.757Z,13234
2019-05-02T22:25:55.025Z,13256
2019-05-02T22:31:09.583Z,13188
2019-05-02T22:36:26.306Z,13208
2019-05-02T22:41:44.500Z,13187
2019-05-02T22:46:59.403Z,13237
2019-05-02T22:52:14.970Z,13183
2019-05-02T23:02:42.372Z,13217
2019-05-02T23:07:57.405Z,13208
2019-05-02T23:18:32.759Z,13154
2019-05-02T23:39:21.218Z,13182
2019-05-02T23:44:37.120Z,13197
2019-05-02T23:49:54.090Z,13240
2019-05-02T23:55:09.121Z,13257
